74T weather

Hicks Airport
Ponder, Texas, United States

Public forecast

Using degrees Fahrenheit for public forecast. Weather courtesy of forecast.io.

METAR (pilot weather report)

Closest report is Denton Municipal Airport, 3.0 nm (5.6 km) ENE. Retrieved 2019/07/20 02:53 UTC (10 minutes ago):

KDTO 200253Z AUTO 16010KT 10SM CLR 31/21 A2990 RMK AO2 SLP116 T03110206 53006

TAF (pilot weather forecast)

Forecast is more than 12 hours old.

Closest forecast is Fort Worth Alliance Airport, 12.2 nm (22.6 km) SSW. Retrieved 2019/07/19 00:36 UTC (1 day ago):

TAF KAFW 192333Z 2000/2024 18017KT P6SM FEW050